Time;durP1;ratioP1;P1;durP2;ratioP2;P2;SDS_P1;SDS_P2;PMS_P1;PMS_P2;Temp;Humidity;BMP_temperature;BMP_pressure;BME280_temperature;BME280_humidity;BME280_pressure;Samples;Min_cycle;Max_cycle;Signal;HPM_P1;HPM_P2
2022/12/06 00:01:28;;;;;;;27.60;22.40;;;;;;;3.42;71.33;100647.55;103837;1301;25336;-81
2022/12/06 00:03:56;;;;;;;28.10;23.20;;;;;;;3.43;71.71;100642.54;103841;1301;22838;-78
2022/12/06 00:06:26;;;;;;;31.20;24.50;;;;;;;3.43;71.76;100643.58;103922;1301;22803;-77
2022/12/06 00:08:54;;;;;;;26.80;22.50;;;;;;;3.42;71.91;100641.64;103586;1302;24301;-77
2022/12/06 00:11:26;;;;;;;30.80;25.10;;;;;;;3.38;72.17;100640.30;103913;1301;23792;-76
2022/12/06 00:14:01;;;;;;;28.20;23.40;;;;;;;3.39;72.60;100639.80;103885;1301;22527;-77
2022/12/06 00:16:28;;;;;;;28.60;23.70;;;;;;;3.39;72.57;100633.20;103527;1301;22814;-79
2022/12/06 00:18:57;;;;;;;28.20;24.40;;;;;;;3.40;72.89;100628.70;103584;1301;23895;-76
2022/12/06 00:21:53;;;;;;;28.90;23.80;;;;;;;3.49;73.04;100630.30;103626;1301;24269;-75
2022/12/06 00:24:21;;;;;;;28.00;23.10;;;;;;;3.53;72.98;100628.31;103843;1301;22586;-74
2022/12/06 00:26:49;;;;;;;32.90;24.90;;;;;;;3.57;72.99;100627.52;103308;1301;25405;-76
2022/12/06 00:29:21;;;;;;;33.20;24.70;;;;;;;3.57;73.04;100627.52;103602;1304;22656;-86
2022/12/06 00:31:49;;;;;;;32.40;24.70;;;;;;;3.63;73.23;100624.71;103695;1304;24903;-74
2022/12/06 00:34:15;;;;;;;31.90;24.40;;;;;;;3.70;73.21;100619.83;103856;1301;22534;-73
2022/12/06 00:36:42;;;;;;;31.30;25.10;;;;;;;3.74;73.11;100618.84;103862;1301;22499;-76
2022/12/06 00:39:11;;;;;;;31.40;24.60;;;;;;;3.75;72.98;100620.97;103882;1299;22455;-74
2022/12/06 00:41:38;;;;;;;26.80;22.80;;;;;;;3.75;72.85;100626.90;103950;1296;24237;-75
2022/12/06 00:44:05;;;;;;;30.80;24.60;;;;;;;3.63;72.45;100628.20;103870;1301;22457;-74
2022/12/06 00:46:33;;;;;;;30.00;24.30;;;;;;;3.59;73.10;100625.49;103904;1300;24017;-75
2022/12/06 00:49:00;;;;;;;29.40;24.90;;;;;;;3.63;73.29;100624.52;103764;1301;23659;-75
2022/12/06 00:51:29;;;;;;;31.10;24.00;;;;;;;3.65;73.43;100621.45;103717;1303;22472;-75
2022/12/06 00:53:55;;;;;;;30.60;24.40;;;;;;;3.64;73.10;100612.71;103682;1303;22528;-75
2022/12/06 00:56:22;;;;;;;30.00;25.50;;;;;;;3.52;73.09;100607.56;103623;1303;24505;-75
2022/12/06 00:58:48;;;;;;;27.70;24.40;;;;;;;3.49;73.40;100604.70;103651;1303;22476;-73
2022/12/06 01:01:20;;;;;;;33.50;24.90;;;;;;;3.39;73.28;100602.04;103321;1303;22578;-72
2022/12/06 01:03:53;;;;;;;30.50;22.90;;;;;;;3.38;73.81;100601.33;103429;1304;22511;-73
2022/12/06 01:06:24;;;;;;;27.80;23.20;;;;;;;3.47;74.12;100599.81;103617;1303;25707;-73
2022/12/06 01:08:50;;;;;;;31.10;23.60;;;;;;;3.55;74.13;100600.66;103772;1302;24276;-74
2022/12/06 01:11:17;;;;;;;28.70;23.10;;;;;;;3.60;74.03;100593.47;103450;1306;24376;-74
2022/12/06 01:13:44;;;;;;;27.50;24.30;;;;;;;3.66;74.01;100589.95;103740;1302;22449;-73
2022/12/06 01:16:16;;;;;;;32.00;25.00;;;;;;;3.67;73.93;100585.79;103298;1303;22496;-72
2022/12/06 01:18:43;;;;;;;32.10;25.80;;;;;;;3.70;74.03;100582.88;103640;1303;25306;-73
2022/12/06 01:21:16;;;;;;;31.50;25.80;;;;;;;3.72;74.00;100586.94;103587;1303;24340;-72
2022/12/06 01:23:44;;;;;;;29.00;24.30;;;;;;;3.70;74.08;100583.77;103542;1303;24498;-73
2022/12/06 01:26:15;;;;;;;29.60;23.50;;;;;;;3.71;73.88;100572.98;103518;1302;24326;-72
2022/12/06 01:28:42;;;;;;;29.00;24.30;;;;;;;3.70;73.97;100566.70;103260;1303;22715;-73
2022/12/06 01:31:08;;;;;;;31.10;25.50;;;;;;;3.75;73.98;100562.09;103534;1303;25112;-73
2022/12/06 01:33:34;;;;;;;30.70;25.90;;;;;;;3.75;73.86;100560.35;103531;1303;22586;-74
2022/12/06 01:36:01;;;;;;;30.80;26.10;;;;;;;3.74;74.05;100558.05;103540;1303;22853;-74
2022/12/06 01:38:28;;;;;;;32.90;25.10;;;;;;;3.74;74.15;100560.49;103655;1303;23373;-75
2022/12/06 01:40:55;;;;;;;33.20;26.90;;;;;;;3.76;74.19;100555.67;103651;1303;22615;-73
2022/12/06 01:43:37;;;;;;;31.30;26.00;;;;;;;3.79;74.15;100559.91;103606;1303;22903;-74
2022/12/06 01:46:21;;;;;;;30.80;23.90;;;;;;;3.82;74.15;100561.36;103599;1303;22434;-75
2022/12/06 01:48:51;;;;;;;28.70;23.00;;;;;;;3.79;73.72;100560.08;103603;1303;22716;-74
2022/12/06 01:51:17;;;;;;;31.30;25.30;;;;;;;3.79;74.04;100558.86;103399;1303;22458;-77
2022/12/06 01:53:47;;;;;;;28.00;24.40;;;;;;;3.84;74.11;100553.91;103501;1306;22977;-75
2022/12/06 01:56:13;;;;;;;29.40;24.60;;;;;;;3.89;74.13;100548.97;103417;1304;22467;-76
2022/12/06 01:58:43;;;;;;;33.50;26.50;;;;;;;3.94;74.05;100546.11;103636;1303;22576;-75
2022/12/06 02:01:09;;;;;;;30.10;25.80;;;;;;;3.89;73.60;100541.13;103466;1303;22475;-77
2022/12/06 02:03:36;;;;;;;30.20;26.20;;;;;;;3.87;73.75;100541.42;103625;1303;23026;-75
2022/12/06 02:06:07;;;;;;;32.90;27.40;;;;;;;3.85;73.72;100541.39;103504;1304;25366;-76
2022/12/06 02:08:35;;;;;;;32.10;26.00;;;;;;;3.85;73.79;100542.79;103493;1303;22478;-79
2022/12/06 02:11:03;;;;;;;33.20;25.90;;;;;;;3.82;73.62;100536.13;103357;1303;24329;-80
2022/12/06 02:13:32;;;;;;;34.20;25.40;;;;;;;3.77;73.60;100535.80;103654;1303;25436;-76
2022/12/06 02:16:27;;;;;;;30.20;25.40;;;;;;;3.75;73.71;100531.42;103776;1303;24923;-75
2022/12/06 02:19:31;;;;;;;31.40;24.30;;;;;;;3.80;73.89;100534.33;103646;1303;22453;-77
2022/12/06 02:22:34;;;;;;;31.70;25.60;;;;;;;3.83;73.81;100528.45;103840;1303;25327;-75
2022/12/06 02:25:12;;;;;;;34.70;25.50;;;;;;;3.83;73.80;100528.81;103491;1291;25566;-78
2022/12/06 02:28:00;;;;;;;34.30;26.00;;;;;;;3.85;73.95;100523.61;103672;1303;24359;-79
2022/12/06 02:30:51;;;;;;;31.50;25.10;;;;;;;3.88;73.87;100524.56;103643;1303;22585;-79
2022/12/06 02:33:27;;;;;;;33.50;26.00;;;;;;;3.87;73.75;100520.02;103868;1297;22839;-80
2022/12/06 02:36:20;;;;;;;31.80;23.70;;;;;;;3.85;73.65;100519.42;103750;1303;22452;-78
2022/12/06 02:38:52;;;;;;;33.10;25.40;;;;;;;3.79;73.57;100514.79;103690;1303;24244;-78
2022/12/06 02:41:29;;;;;;;32.50;25.80;;;;;;;3.81;73.84;100514.31;103708;1294;25566;-77
2022/12/06 02:44:02;;;;;;;34.40;26.60;;;;;;;3.88;73.98;100512.02;103654;1304;22456;-76
2022/12/06 02:46:32;;;;;;;34.20;26.40;;;;;;;3.91;73.71;100509.96;103740;1299;22483;-77
2022/12/06 02:49:01;;;;;;;32.00;26.30;;;;;;;3.96;73.86;100505.20;103628;1294;185020;-77
2022/12/06 02:51:31;;;;;;;34.60;26.60;;;;;;;4.00;73.76;100498.30;103842;1303;22483;-76
2022/12/06 02:54:01;;;;;;;33.70;26.20;;;;;;;4.01;73.69;100496.23;103694;1303;22580;-74
2022/12/06 02:56:30;;;;;;;33.20;27.60;;;;;;;4.00;73.54;100486.27;103791;1301;22479;-75
2022/12/06 02:58:57;;;;;;;34.30;27.30;;;;;;;4.00;73.53;100480.36;104079;1303;22467;-78
2022/12/06 03:01:27;;;;;;;31.10;24.70;;;;;;;3.96;73.41;100477.48;103703;1303;24039;-79
2022/12/06 03:03:56;;;;;;;36.10;27.50;;;;;;;3.94;73.53;100472.60;103753;1303;24266;-80
2022/12/06 03:06:25;;;;;;;31.60;25.10;;;;;;;3.97;73.67;100474.02;103711;1304;22461;-76
2022/12/06 03:09:12;;;;;;;31.60;25.60;;;;;;;3.98;73.55;100468.63;103612;1301;22455;-76
2022/12/06 03:12:03;;;;;;;32.80;26.90;;;;;;;3.99;73.62;100471.80;103529;1303;23116;-77
2022/12/06 03:15:13;;;;;;;37.30;25.90;;;;;;;3.99;73.47;100466.73;103607;1302;22542;-78
2022/12/06 03:17:56;;;;;;;34.20;27.00;;;;;;;3.99;73.54;100468.48;103775;1303;22708;-77
2022/12/06 03:20:55;;;;;;;36.20;27.50;;;;;;;4.00;73.55;100464.48;103540;1304;22472;-80
2022/12/06 03:23:30;;;;;;;32.20;25.20;;;;;;;3.98;73.53;100468.64;103587;1305;25277;-80
2022/12/06 03:25:59;;;;;;;33.10;25.10;;;;;;;3.98;73.42;100475.09;103822;1301;22469;-75
2022/12/06 03:28:28;;;;;;;35.80;26.30;;;;;;;3.96;73.51;100468.25;103680;1303;25252;-75
2022/12/06 03:31:01;;;;;;;33.80;26.40;;;;;;;3.99;73.60;100466.58;103922;1303;22931;-77
2022/12/06 03:33:31;;;;;;;37.70;27.00;;;;;;;4.02;73.50;100464.36;103747;1304;22455;-79
2022/12/06 03:35:58;;;;;;;32.90;25.70;;;;;;;4.04;73.53;100462.64;103623;1306;22842;-80
2022/12/06 03:38:31;;;;;;;35.00;26.90;;;;;;;4.05;73.61;100459.70;103721;1303;22452;-76
2022/12/06 03:41:03;;;;;;;29.80;24.60;;;;;;;4.04;73.50;100457.77;103645;1304;25249;-76
2022/12/06 03:43:29;;;;;;;33.00;27.20;;;;;;;4.02;73.43;100459.66;103511;1303;22426;-76
2022/12/06 03:46:05;;;;;;;34.30;27.30;;;;;;;4.00;73.46;100462.73;103641;1303;22542;-73
2022/12/06 03:48:42;;;;;;;32.40;25.20;;;;;;;4.00;73.61;100459.77;103369;1306;22484;-75
2022/12/06 03:51:15;;;;;;;34.30;26.00;;;;;;;4.04;73.66;100456.38;103508;1303;22600;-78
2022/12/06 03:53:52;;;;;;;32.00;25.60;;;;;;;4.09;73.81;100455.43;103990;1304;22766;-76
2022/12/06 03:56:20;;;;;;;37.30;27.00;;;;;;;4.10;73.42;100451.10;103797;1303;25332;-76
2022/12/06 03:58:46;;;;;;;36.50;26.80;;;;;;;4.06;73.36;100451.36;103634;1301;26657;-75
2022/12/06 04:01:12;;;;;;;33.00;26.60;;;;;;;4.07;73.45;100447.90;103727;1303;24252;-77
2022/12/06 04:03:39;;;;;;;34.50;27.10;;;;;;;4.01;73.42;100446.90;103785;1307;23084;-75
2022/12/06 04:06:06;;;;;;;36.90;27.80;;;;;;;4.04;73.69;100441.23;103619;1307;22593;-74
2022/12/06 04:08:33;;;;;;;35.00;27.20;;;;;;;4.09;73.59;100437.13;103828;1299;22486;-75
2022/12/06 04:10:59;;;;;;;34.70;27.10;;;;;;;4.09;73.57;100438.36;103806;1307;25205;-75
2022/12/06 04:13:26;;;;;;;34.10;26.00;;;;;;;4.09;73.55;100436.96;103641;1307;23884;-77
2022/12/06 04:15:58;;;;;;;35.70;26.30;;;;;;;4.03;73.20;100435.45;103745;1289;22475;-78
2022/12/06 04:18:26;;;;;;;37.00;26.70;;;;;;;4.06;73.66;100436.38;103430;1304;22570;-76
2022/12/06 04:23:48;;;;;;;31.20;26.00;;;;;;;4.16;73.75;100428.55;103655;1304;25576;-78
2022/12/06 04:26:20;;;;;;;33.60;26.50;;;;;;;4.18;73.54;100424.22;103532;1301;25198;-78
2022/12/06 04:39:47;;;;;;;38.20;25.40;;;;;;;4.10;73.18;100417.27;103436;1305;25171;-73
2022/12/06 04:44:58;;;;;;;29.50;24.80;;;;;;;4.05;73.64;100421.89;103598;1300;24424;-73
2022/12/06 04:47:24;;;;;;;34.40;26.80;;;;;;;4.06;73.70;100422.08;103364;1304;24551;-74
2022/12/06 04:49:51;;;;;;;32.40;25.60;;;;;;;4.00;73.62;100418.84;103838;1295;22743;-72
2022/12/06 04:52:17;;;;;;;36.00;26.90;;;;;;;3.97;73.97;100417.58;103642;1304;26480;-72
2022/12/06 04:54:44;;;;;;;31.70;26.00;;;;;;;4.00;74.20;100408.39;103655;1304;22580;-73
2022/12/06 04:57:15;;;;;;;34.20;26.80;;;;;;;4.02;74.11;100407.55;103610;1303;22460;-76
2022/12/06 04:59:45;;;;;;;30.90;23.70;;;;;;;4.01;73.98;100405.10;103662;1304;25208;-81
2022/12/06 05:02:14;;;;;;;32.00;24.90;;;;;;;3.95;73.99;100411.96;103723;1302;23172;-76
2022/12/06 05:04:40;;;;;;;31.40;24.10;;;;;;;3.96;74.17;100408.13;103273;1306;22561;-76
2022/12/06 05:07:08;;;;;;;30.40;24.90;;;;;;;3.91;74.08;100403.35;103724;1301;25426;-73
2022/12/06 05:09:34;;;;;;;36.10;26.40;;;;;;;3.95;74.34;100406.03;103704;1303;22449;-77
2022/12/06 05:12:01;;;;;;;32.70;26.30;;;;;;;4.00;74.44;100399.83;103647;1304;22480;-75
2022/12/06 05:14:27;;;;;;;34.00;26.20;;;;;;;4.03;74.47;100392.40;103633;1306;25379;-77
2022/12/06 05:16:53;;;;;;;29.40;25.00;;;;;;;4.03;74.18;100387.53;103713;1294;22895;-74
2022/12/06 05:19:20;;;;;;;34.10;25.80;;;;;;;3.95;73.76;100382.69;103736;1303;22578;-76
2022/12/06 05:21:46;;;;;;;31.90;25.90;;;;;;;3.85;73.85;100385.11;103737;1306;24250;-74
2022/12/06 05:24:13;;;;;;;31.20;24.20;;;;;;;3.82;74.31;100386.63;103804;1303;22458;-84
2022/12/06 05:26:40;;;;;;;34.10;24.50;;;;;;;3.84;74.44;100382.83;103805;1294;25287;-74
2022/12/06 05:29:06;;;;;;;31.10;23.60;;;;;;;3.83;74.22;100380.72;103645;1304;25339;-74
2022/12/06 05:31:32;;;;;;;34.20;25.10;;;;;;;3.75;74.20;100377.79;103472;1304;25473;-79
2022/12/06 05:33:58;;;;;;;33.60;25.00;;;;;;;3.74;74.72;100370.11;103709;1304;25507;-77
2022/12/06 05:36:26;;;;;;;32.30;24.20;;;;;;;3.79;74.84;100357.48;103554;1304;22476;-76
2022/12/06 05:38:53;;;;;;;33.50;25.20;;;;;;;3.82;74.74;100353.52;103826;1303;23195;-75
2022/12/06 05:41:21;;;;;;;29.80;23.70;;;;;;;3.80;74.62;100359.23;103783;1303;22484;-79
2022/12/06 05:43:47;;;;;;;30.30;23.30;;;;;;;3.81;74.69;100363.98;103711;1303;25328;-75
2022/12/06 05:46:13;;;;;;;27.60;21.90;;;;;;;3.83;74.88;100359.98;103616;1297;22448;-76
2022/12/06 05:48:39;;;;;;;26.40;21.50;;;;;;;3.86;74.70;100356.73;103818;1303;22463;-77
2022/12/06 05:51:06;;;;;;;28.40;22.40;;;;;;;3.87;74.72;100358.83;104262;1303;24062;-82
2022/12/06 05:53:32;;;;;;;29.10;23.00;;;;;;;3.87;74.79;100359.55;104673;1301;24328;-82
2022/12/06 05:56:10;;;;;;;28.10;21.70;;;;;;;3.87;74.69;100354.48;104073;1301;22487;-78
2022/12/06 05:58:36;;;;;;;33.00;24.40;;;;;;;3.88;74.66;100351.55;103851;1302;25300;-78
2022/12/06 06:01:05;;;;;;;32.40;23.60;;;;;;;3.91;74.82;100351.42;103643;1303;22469;-80
2022/12/06 06:03:31;;;;;;;29.90;22.70;;;;;;;3.94;74.81;100349.21;103880;1302;25401;-79
2022/12/06 06:05:59;;;;;;;26.90;22.10;;;;;;;3.99;74.66;100348.60;103811;1296;24210;-78
2022/12/06 06:08:27;;;;;;;26.90;21.80;;;;;;;4.02;74.59;100343.41;103565;1303;24257;-78
2022/12/06 06:10:53;;;;;;;28.30;22.50;;;;;;;4.06;74.63;100341.39;103879;1303;24238;-79
2022/12/06 06:13:20;;;;;;;28.10;22.60;;;;;;;4.09;74.42;100337.96;103773;1284;22772;-83
2022/12/06 06:15:48;;;;;;;28.20;23.00;;;;;;;4.13;74.58;100337.15;103425;1303;24341;-85
2022/12/06 06:18:16;;;;;;;30.20;22.50;;;;;;;4.15;74.26;100337.19;103657;1303;22604;-81
2022/12/06 06:20:48;;;;;;;29.30;23.60;;;;;;;4.14;74.28;100343.96;103392;1289;25431;-82
2022/12/06 06:23:15;;;;;;;26.90;22.80;;;;;;;4.16;74.22;100354.98;103655;1303;22465;-85
2022/12/06 06:25:41;;;;;;;27.40;22.10;;;;;;;4.11;73.91;100358.73;103661;1295;25634;-86
2022/12/06 06:28:07;;;;;;;26.60;21.80;;;;;;;4.06;74.01;100359.35;103757;1303;22705;-83
2022/12/06 06:30:34;;;;;;;26.00;20.70;;;;;;;4.07;73.95;100358.34;103713;1303;24206;-83
2022/12/06 06:33:00;;;;;;;26.00;20.30;;;;;;;4.07;73.89;100359.19;103774;1304;22867;-82
2022/12/06 06:35:26;;;;;;;23.00;19.80;;;;;;;4.07;74.04;100355.36;103362;1306;24681;-83
2022/12/06 06:37:52;;;;;;;28.80;21.80;;;;;;;4.09;74.05;100358.89;103655;1303;22501;-80
2022/12/06 06:40:19;;;;;;;25.70;21.20;;;;;;;4.09;73.78;100358.17;103580;1303;24080;-82
2022/12/06 06:42:45;;;;;;;28.50;22.20;;;;;;;4.01;73.70;100355.77;103720;1303;24274;-80
2022/12/06 06:45:11;;;;;;;25.60;21.10;;;;;;;3.97;73.90;100354.84;103659;1303;23130;-83
2022/12/06 06:47:37;;;;;;;26.00;20.90;;;;;;;3.93;74.01;100349.73;103657;1303;23905;-81
2022/12/06 06:50:05;;;;;;;24.00;20.00;;;;;;;3.93;74.15;100350.23;103578;1303;22477;-81
2022/12/06 06:52:31;;;;;;;24.30;19.20;;;;;;;3.95;74.31;100349.41;103754;1303;22468;-80
2022/12/06 06:54:58;;;;;;;26.20;20.00;;;;;;;3.98;74.55;100347.53;103558;1303;23522;-78
2022/12/06 06:57:24;;;;;;;24.20;21.00;;;;;;;4.06;74.65;100347.50;103798;1302;22494;-84
2022/12/06 06:59:51;;;;;;;22.70;19.70;;;;;;;4.13;74.46;100347.09;103528;1296;22457;-82
2022/12/06 07:02:18;;;;;;;23.30;20.20;;;;;;;4.17;74.38;100343.66;103839;1300;22494;-82
2022/12/06 07:04:44;;;;;;;25.00;19.50;;;;;;;4.16;74.07;100342.95;103693;1301;22851;-83
2022/12/06 07:07:12;;;;;;;27.50;19.60;;;;;;;4.07;74.09;100343.16;103555;1303;22451;-79
2022/12/06 07:09:46;;;;;;;22.20;19.60;;;;;;;4.05;74.39;100341.73;103511;1303;22582;-81
2022/12/06 07:12:12;;;;;;;22.50;18.70;;;;;;;4.09;74.65;100341.45;103818;1295;22677;-81
2022/12/06 07:14:38;;;;;;;21.70;17.00;;;;;;;4.14;74.63;100340.30;103783;1302;25516;-80
2022/12/06 07:17:05;;;;;;;22.90;18.90;;;;;;;4.15;74.58;100338.41;103789;1303;22475;-80
2022/12/06 07:19:31;;;;;;;23.30;18.90;;;;;;;4.18;74.44;100336.88;103661;1303;22457;-81
2022/12/06 07:21:57;;;;;;;27.90;18.50;;;;;;;4.20;74.55;100326.98;103705;1303;22472;-79
2022/12/06 07:24:23;;;;;;;21.40;18.00;;;;;;;4.26;74.53;100327.43;103373;1304;22874;-78
2022/12/06 07:26:49;;;;;;;20.70;18.50;;;;;;;4.26;74.06;100326.04;103942;1303;23063;-78
2022/12/06 07:29:14;;;;;;;21.50;19.10;;;;;;;4.16;74.00;100326.75;103986;1303;22469;-78
2022/12/06 07:31:40;;;;;;;27.00;20.50;;;;;;;4.10;73.98;100326.31;103881;1295;24025;-79
2022/12/06 07:34:08;;;;;;;21.90;18.80;;;;;;;4.05;74.10;100326.21;103534;1297;22458;-80
2022/12/06 07:36:34;;;;;;;21.50;18.10;;;;;;;4.01;74.41;100328.42;103712;1303;22486;-79
2022/12/06 07:39:00;;;;;;;23.40;18.70;;;;;;;4.03;74.61;100327.39;103809;1300;22500;-79
2022/12/06 07:47:41;;;;;;;22.20;18.50;;;;;;;4.17;74.75;100320.83;103630;1303;22460;-79
2022/12/06 07:50:12;;;;;;;21.90;19.20;;;;;;;4.19;74.49;100312.33;103634;1303;25204;-79
2022/12/06 07:52:45;;;;;;;24.90;19.80;;;;;;;4.20;74.62;100307.11;103606;1303;22592;-79
2022/12/06 07:55:12;;;;;;;25.10;19.70;;;;;;;4.25;74.71;100307.34;103680;1303;25932;-77
2022/12/06 07:57:38;;;;;;;19.60;17.30;;;;;;;4.25;74.56;100304.73;103562;1303;24254;-79
2022/12/06 08:00:11;;;;;;;22.20;17.50;;;;;;;4.25;74.51;100303.70;103967;1300;24272;-81
2022/12/06 08:02:38;;;;;;;21.20;17.70;;;;;;;4.27;74.55;100304.26;103779;1302;22473;-77
2022/12/06 08:05:05;;;;;;;20.40;17.10;;;;;;;4.30;74.51;100307.27;103974;1303;22510;-78
2022/12/06 08:07:31;;;;;;;20.90;18.20;;;;;;;4.33;74.42;100309.91;103693;1303;22648;-79
2022/12/06 08:09:57;;;;;;;19.40;17.40;;;;;;;4.23;74.03;100305.40;103541;1303;22449;-78
2022/12/06 08:12:24;;;;;;;20.20;18.10;;;;;;;4.21;74.38;100307.81;103556;1304;24365;-79
2022/12/06 08:14:50;;;;;;;22.20;17.20;;;;;;;4.23;74.35;100303.14;103503;1302;22480;-78
2022/12/06 08:17:20;;;;;;;21.10;17.70;;;;;;;4.18;74.08;100302.89;103020;1309;22479;-80
2022/12/06 08:19:46;;;;;;;22.90;17.80;;;;;;;4.18;74.40;100304.81;103199;1309;22614;-78
2022/12/06 08:22:12;;;;;;;19.30;17.30;;;;;;;4.22;74.43;100308.02;102493;1317;24117;-78
2022/12/06 08:24:38;;;;;;;23.60;18.00;;;;;;;4.20;74.17;100308.50;102512;1309;24210;-79
2022/12/06 08:27:05;;;;;;;20.20;18.00;;;;;;;4.17;74.07;100304.96;102568;1317;22880;-80
2022/12/06 08:29:31;;;;;;;23.50;20.90;;;;;;;4.16;74.25;100300.95;102519;1309;25400;-81
2022/12/06 08:31:58;;;;;;;23.80;20.40;;;;;;;4.15;74.21;100298.48;102505;1317;22761;-79
2022/12/06 08:34:24;;;;;;;26.30;21.90;;;;;;;4.14;74.11;100300.38;102669;1317;25282;-79
2022/12/06 08:36:50;;;;;;;26.70;21.80;;;;;;;4.12;74.31;100300.20;103103;1309;22478;-83
2022/12/06 08:39:16;;;;;;;27.80;22.70;;;;;;;4.03;73.79;100301.61;103134;1309;22898;-81
2022/12/06 08:41:54;;;;;;;27.30;22.00;;;;;;;3.89;73.82;100305.04;103728;1303;22487;-80
2022/12/06 08:44:22;;;;;;;25.20;20.10;;;;;;;3.84;74.46;100301.65;103656;1303;24400;-83
2022/12/06 08:46:49;;;;;;;24.90;20.80;;;;;;;3.89;74.86;100300.69;103570;1303;22467;-78
2022/12/06 08:49:17;;;;;;;27.90;22.30;;;;;;;3.98;74.88;100302.05;103965;1303;22601;-78
2022/12/06 08:51:43;;;;;;;28.60;23.40;;;;;;;4.02;74.74;100297.39;103711;1303;24260;-78
2022/12/06 08:54:13;;;;;;;25.30;21.90;;;;;;;4.03;74.53;100293.41;103572;1303;22493;-80
2022/12/06 08:56:40;;;;;;;27.40;22.60;;;;;;;3.96;74.31;100291.05;103757;1303;24248;-79
2022/12/06 08:59:07;;;;;;;27.40;22.60;;;;;;;3.97;74.52;100290.35;103524;1303;25527;-78
2022/12/06 09:01:33;;;;;;;28.70;23.50;;;;;;;3.99;74.68;100295.96;103869;1303;24209;-79
2022/12/06 09:04:06;;;;;;;28.50;22.60;;;;;;;3.99;74.67;100299.43;103612;1298;22520;-83
2022/12/06 09:06:32;;;;;;;27.80;22.50;;;;;;;4.04;74.88;100297.09;103845;1303;22464;-81
2022/12/06 09:08:58;;;;;;;31.00;23.80;;;;;;;4.10;74.91;100286.55;103719;1303;22533;-82
2022/12/06 09:11:25;;;;;;;31.20;24.70;;;;;;;4.08;74.58;100278.00;103647;1303;22579;-80
2022/12/06 09:13:52;;;;;;;34.00;24.40;;;;;;;4.08;74.65;100274.16;103619;1303;25293;-79
2022/12/06 09:16:22;;;;;;;32.20;25.20;;;;;;;4.07;74.70;100267.70;103896;1303;22555;-79
2022/12/06 09:18:50;;;;;;;31.00;24.40;;;;;;;4.09;74.74;100262.14;103670;1303;22621;-80
2022/12/06 09:21:19;;;;;;;29.40;23.40;;;;;;;4.09;74.71;100260.76;103869;1303;22475;-81
2022/12/06 09:23:45;;;;;;;28.50;22.30;;;;;;;4.07;74.54;100262.66;103601;1303;24749;-80
2022/12/06 09:26:14;;;;;;;31.60;24.30;;;;;;;4.08;74.70;100262.84;103680;1303;22504;-80
2022/12/06 09:28:43;;;;;;;30.60;24.60;;;;;;;4.14;74.86;100266.57;103760;1302;22467;-79
2022/12/06 09:31:09;;;;;;;31.80;24.80;;;;;;;4.18;74.72;100269.42;103890;1303;24422;-81
2022/12/06 09:33:37;;;;;;;30.00;24.20;;;;;;;4.16;74.33;100267.30;103532;1303;22505;-80
2022/12/06 09:36:12;;;;;;;32.30;25.20;;;;;;;4.13;74.62;100260.64;103506;1297;22831;-78
2022/12/06 09:38:42;;;;;;;31.20;24.90;;;;;;;4.13;74.53;100256.45;103601;1303;21685;-79
2022/12/06 09:41:08;;;;;;;31.40;25.20;;;;;;;4.10;74.60;100252.92;103785;1303;22462;-78
2022/12/06 09:43:48;;;;;;;31.70;25.00;;;;;;;4.11;74.82;100250.30;103807;1303;22552;-79
2022/12/06 09:46:50;;;;;;;28.20;23.00;;;;;;;4.17;75.05;100246.59;103869;1303;24304;-79
2022/12/06 09:49:42;;;;;;;32.20;24.30;;;;;;;4.28;75.16;100239.23;103464;1303;22515;-81
2022/12/06 09:52:14;;;;;;;30.20;24.00;;;;;;;4.39;75.05;100233.80;103725;1303;22588;-82
2022/12/06 09:55:04;;;;;;;31.20;24.80;;;;;;;4.43;74.83;100232.47;103717;1303;24246;-78
2022/12/06 09:57:51;;;;;;;37.90;26.90;;;;;;;4.45;74.86;100230.39;103690;1303;24406;-79
2022/12/06 10:00:19;;;;;;;;;;;;;;;4.45;74.68;100229.54;103816;1303;25277;-81
2022/12/06 10:03:00;;;;;;;39.40;28.30;;;;;;;4.44;74.78;100227.60;103521;1295;22957;-81
2022/12/06 10:05:32;;;;;;;37.30;29.90;;;;;;;4.43;74.74;100225.66;103526;1304;22745;-82
2022/12/06 10:08:32;;;;;;;37.40;28.10;;;;;;;4.40;74.78;100223.72;103740;1303;24479;-80
2022/12/06 10:11:37;;;;;;;35.70;25.40;;;;;;;4.40;74.97;100215.70;103739;1303;22461;-81
2022/12/06 10:14:06;;;;;;;32.20;24.90;;;;;;;4.47;74.99;100210.20;103448;1303;24418;-80
2022/12/06 10:16:54;;;;;;;31.00;25.50;;;;;;;4.53;74.99;100208.02;103524;1303;23932;-80
2022/12/06 10:19:47;;;;;;;36.20;27.10;;;;;;;4.59;74.89;100197.27;103867;1303;24364;-80
2022/12/06 10:22:41;;;;;;;37.10;28.00;;;;;;;4.52;74.19;100192.31;103773;1303;22546;-80
2022/12/06 10:25:18;;;;;;;38.60;28.30;;;;;;;4.45;74.30;100178.09;103750;1302;22565;-80
2022/12/06 10:27:52;;;;;;;36.60;26.80;;;;;;;4.42;74.37;100175.42;103653;1299;23865;-80
2022/12/06 10:30:18;;;;;;;33.00;28.50;;;;;;;4.38;74.38;100171.20;103836;1301;25269;-79
2022/12/06 10:33:04;;;;;;;36.40;27.10;;;;;;;4.36;74.65;100167.86;103501;1303;22859;-79
2022/12/06 10:35:43;;;;;;;31.80;25.40;;;;;;;4.33;74.34;100168.18;103596;1296;25371;-79
2022/12/06 10:38:26;;;;;;;38.90;26.90;;;;;;;4.30;74.58;100169.52;103715;1302;22524;-79
2022/12/06 10:40:52;;;;;;;36.70;26.90;;;;;;;4.32;74.81;100164.33;103749;1303;22518;-79
2022/12/06 10:43:40;;;;;;;37.50;27.40;;;;;;;4.34;74.78;100165.91;103791;1302;23124;-80
2022/12/06 10:50:25;;;;;;;37.50;27.30;;;;;;;4.44;74.91;100155.23;103747;1303;22468;-80
2022/12/06 10:53:11;;;;;;;35.50;26.60;;;;;;;4.50;74.96;100153.39;103843;1303;23158;-80
2022/12/06 10:55:48;;;;;;;37.30;26.70;;;;;;;4.55;74.89;100146.65;103823;1303;25341;-79
2022/12/06 10:58:37;;;;;;;33.60;25.80;;;;;;;4.52;74.45;100135.97;103594;1303;25260;-80
2022/12/06 11:01:26;;;;;;;32.40;25.00;;;;;;;4.54;74.54;100131.30;103746;1301;26507;-79
2022/12/06 11:04:25;;;;;;;33.30;24.40;;;;;;;4.52;74.31;100127.77;103535;1303;24949;-79
2022/12/06 11:07:00;;;;;;;34.90;24.40;;;;;;;4.49;74.56;100123.55;103402;1303;22532;-80
2022/12/06 11:09:39;;;;;;;34.60;24.70;;;;;;;4.51;74.44;100120.95;103949;1303;24273;-79
2022/12/06 11:12:35;;;;;;;34.50;25.00;;;;;;;4.51;74.60;100119.39;103574;1303;24363;-80
2022/12/06 11:15:23;;;;;;;34.10;25.10;;;;;;;4.55;74.65;100118.73;103437;1303;22556;-80
2022/12/06 11:17:56;;;;;;;34.80;25.30;;;;;;;4.58;74.61;100120.69;103797;1300;22484;-81
2022/12/06 11:20:33;;;;;;;35.90;25.10;;;;;;;4.61;74.39;100118.27;103672;1303;22475;-81
2022/12/06 11:23:20;;;;;;;35.00;24.70;;;;;;;4.61;74.37;100116.88;103792;1303;24301;-81
2022/12/06 11:26:02;;;;;;;33.50;24.50;;;;;;;4.63;74.49;100114.80;103668;1303;25358;-80
2022/12/06 11:28:35;;;;;;;31.90;24.70;;;;;;;4.65;74.61;100116.23;103859;1303;22530;-80
2022/12/06 11:31:09;;;;;;;36.10;27.20;;;;;;;4.64;74.35;100112.91;103871;1296;25512;-80
2022/12/06 11:33:35;;;;;;;40.60;29.00;;;;;;;4.59;74.29;100111.28;103882;1303;23310;-79
2022/12/06 11:36:05;;;;;;;39.50;27.30;;;;;;;4.55;74.47;100108.45;103594;1302;22927;-80
2022/12/06 11:38:33;;;;;;;34.00;26.20;;;;;;;4.55;74.62;100109.67;103879;1301;22575;-82
2022/12/06 11:41:01;;;;;;;35.20;25.70;;;;;;;4.51;74.26;100107.88;103729;1303;22857;-83
2022/12/06 11:43:34;;;;;;;38.30;25.30;;;;;;;4.47;74.38;100104.35;103645;1303;25643;-82
2022/12/06 11:46:01;;;;;;;31.40;24.10;;;;;;;4.43;74.33;100101.69;103761;1303;24260;-82
2022/12/06 11:48:33;;;;;;;32.50;24.70;;;;;;;4.39;74.49;100096.59;103676;1303;24416;-81
2022/12/06 11:51:00;;;;;;;33.10;24.40;;;;;;;4.42;74.68;100091.73;103869;1303;22580;-80
2022/12/06 11:53:36;;;;;;;35.40;24.20;;;;;;;4.40;74.42;100091.54;104015;1303;22553;-79
2022/12/06 11:56:21;;;;;;;35.90;24.80;;;;;;;4.35;74.42;100092.52;103816;1303;23274;-80